Time;durP1;ratioP1;P1;durP2;ratioP2;P2;SDS_P1;SDS_P2;PMS_P1;PMS_P2;Temp;Humidity;BMP_temperature;BMP_pressure;BME280_temperature;BME280_humidity;BME280_pressure;Samples;Min_cycle;Max_cycle;Signal;HPM_P1;HPM_P2
2023/07/29 00:02:16;;;;;;;10.45;6.75;;;;;;;16.99;100.00;100701.66;5043890;28;20033;-78
2023/07/29 00:04:41;;;;;;;10.98;6.82;;;;;;;16.98;100.00;100692.06;5039884;28;20037;-78
2023/07/29 00:07:07;;;;;;;7.18;6.28;;;;;;;17.00;100.00;100698.97;5040244;28;20428;-78
2023/07/29 00:09:32;;;;;;;10.82;6.80;;;;;;;16.98;100.00;100699.97;5036826;28;20388;-78
2023/07/29 00:11:58;;;;;;;9.85;6.35;;;;;;;16.95;100.00;100698.34;5039900;28;20425;-78
2023/07/29 00:14:23;;;;;;;8.70;6.18;;;;;;;16.98;100.00;100698.19;5038805;28;20036;-78
2023/07/29 00:16:48;;;;;;;7.57;6.68;;;;;;;16.95;100.00;100708.88;5041929;28;20029;-78
2023/07/29 00:19:14;;;;;;;12.43;6.47;;;;;;;16.97;100.00;100706.16;5041309;28;20013;-78
2023/07/29 00:21:40;;;;;;;8.45;6.22;;;;;;;17.00;100.00;100695.47;5043738;28;20461;-78
2023/07/29 00:24:06;;;;;;;7.22;6.43;;;;;;;17.01;100.00;100703.28;5041356;28;20021;-78
2023/07/29 00:26:31;;;;;;;7.05;6.10;;;;;;;16.99;100.00;100707.78;5034986;28;20037;-78
2023/07/29 00:28:57;;;;;;;8.52;6.22;;;;;;;17.01;100.00;100705.94;5038804;28;20464;-78
2023/07/29 00:31:23;;;;;;;8.98;6.57;;;;;;;17.03;100.00;100709.31;5039477;28;20033;-78
2023/07/29 00:33:48;;;;;;;9.02;6.40;;;;;;;17.04;100.00;100695.22;5036451;28;20460;-78
2023/07/29 00:36:13;;;;;;;7.93;6.22;;;;;;;16.99;100.00;100694.59;5040903;28;20064;-78
2023/07/29 00:38:39;;;;;;;9.40;6.25;;;;;;;16.94;100.00;100679.97;5043001;28;20488;-78
2023/07/29 00:41:04;;;;;;;9.75;6.78;;;;;;;16.87;100.00;100678.59;5036696;28;20028;-77
2023/07/29 00:43:30;;;;;;;10.57;6.63;;;;;;;16.74;100.00;100678.34;5037016;28;20028;-77
2023/07/29 00:45:57;;;;;;;11.32;6.72;;;;;;;16.72;100.00;100681.06;5039826;28;20370;-77
2023/07/29 00:48:23;;;;;;;12.05;6.32;;;;;;;16.73;100.00;100674.88;5034876;28;20036;-77
2023/07/29 00:50:49;;;;;;;7.88;5.95;;;;;;;16.68;100.00;100676.06;5034664;28;20439;-78
2023/07/29 00:53:14;;;;;;;10.20;6.57;;;;;;;16.67;100.00;100671.72;5036305;28;20029;-78
2023/07/29 00:55:41;;;;;;;10.98;6.82;;;;;;;16.66;100.00;100678.75;5036633;28;20037;-78
2023/07/29 00:58:07;;;;;;;11.00;7.38;;;;;;;16.59;100.00;100662.44;5035654;28;20367;-77
2023/07/29 01:00:32;;;;;;;8.32;6.85;;;;;;;16.59;100.00;100666.84;5044211;28;20028;-78
2023/07/29 01:02:57;;;;;;;7.43;6.45;;;;;;;16.53;100.00;100664.53;5039534;28;20021;-78
2023/07/29 01:05:28;;;;;;;8.25;6.95;;;;;;;16.54;100.00;100674.97;5039974;28;20060;-78
2023/07/29 01:08:05;;;;;;;10.27;7.07;;;;;;;16.53;100.00;100670.63;5040614;28;20048;-78
2023/07/29 01:10:45;;;;;;;10.95;7.57;;;;;;;16.48;100.00;100677.03;5045391;28;20110;-78
2023/07/29 01:13:56;;;;;;;9.30;7.75;;;;;;;16.47;100.00;100676.19;5036216;28;20030;-78
2023/07/29 01:16:29;;;;;;;8.60;7.18;;;;;;;16.45;100.00;100671.94;5019668;28;20041;-78
2023/07/29 01:18:55;;;;;;;11.63;7.63;;;;;;;16.43;100.00;100665.94;5040316;28;20372;-78
2023/07/29 01:21:21;;;;;;;8.63;7.28;;;;;;;16.42;100.00;100669.50;5046689;28;20026;-78
2023/07/29 01:23:47;;;;;;;9.52;7.22;;;;;;;16.41;100.00;100680.91;5038970;28;20103;-77
2023/07/29 01:26:12;;;;;;;9.52;7.32;;;;;;;16.42;100.00;100677.38;5043506;28;20029;-77
2023/07/29 01:28:37;;;;;;;9.75;7.28;;;;;;;16.41;100.00;100679.13;5037412;28;20029;-78
2023/07/29 01:31:27;;;;;;;9.10;8.20;;;;;;;16.41;100.00;100676.50;5036938;28;20025;-78
2023/07/29 01:34:06;;;;;;;9.35;7.80;;;;;;;16.38;100.00;100672.28;5036654;28;20053;-78
2023/07/29 01:36:34;;;;;;;8.82;7.93;;;;;;;16.43;100.00;100685.19;5044595;28;20025;-78
2023/07/29 01:39:02;;;;;;;9.27;8.02;;;;;;;16.40;100.00;100685.34;5040629;28;20022;-78
2023/07/29 01:41:28;;;;;;;11.73;7.85;;;;;;;16.40;100.00;100685.34;5045548;28;20087;-78
2023/07/29 01:43:55;;;;;;;10.98;8.00;;;;;;;16.38;100.00;100687.19;5046012;28;20025;-78
2023/07/29 01:46:21;;;;;;;13.15;8.18;;;;;;;16.33;100.00;100690.06;5040635;28;20041;-78
2023/07/29 01:48:46;;;;;;;8.77;7.60;;;;;;;16.37;100.00;100694.22;5041337;28;20025;-78
2023/07/29 01:51:12;;;;;;;10.35;6.72;;;;;;;16.38;100.00;100685.44;5037691;28;20068;-78
2023/07/29 01:53:37;;;;;;;11.18;6.70;;;;;;;16.34;100.00;100691.75;5045020;28;20090;-77
2023/07/29 01:56:03;;;;;;;8.63;6.57;;;;;;;16.30;100.00;100689.34;5048850;28;20155;-77
2023/07/29 01:58:28;;;;;;;9.90;6.20;;;;;;;16.32;100.00;100692.78;5042776;28;20124;-78
2023/07/29 02:00:53;;;;;;;6.88;5.90;;;;;;;16.32;100.00;100690.16;5042801;28;20472;-78
2023/07/29 02:03:19;;;;;;;7.38;6.05;;;;;;;16.33;100.00;100694.47;5039105;28;20021;-78
2023/07/29 02:05:44;;;;;;;8.63;5.82;;;;;;;16.36;100.00;100694.31;5043952;28;20070;-78
2023/07/29 02:08:10;;;;;;;12.70;5.60;;;;;;;16.39;100.00;100687.13;5042720;28;20033;-77
2023/07/29 02:10:36;;;;;;;9.52;5.75;;;;;;;16.32;100.00;100684.88;5033163;28;20378;-78
2023/07/29 02:13:01;;;;;;;10.45;5.47;;;;;;;16.34;100.00;100686.50;5045093;28;20061;-77
2023/07/29 02:15:27;;;;;;;5.88;4.97;;;;;;;16.37;100.00;100682.84;5037891;28;20029;-78
2023/07/29 02:17:53;;;;;;;6.32;5.13;;;;;;;16.33;100.00;100673.44;5043871;28;20036;-78
2023/07/29 02:20:18;;;;;;;9.25;4.72;;;;;;;16.36;100.00;100668.84;5038444;28;20025;-78
2023/07/29 02:22:43;;;;;;;7.20;4.72;;;;;;;16.34;100.00;100664.59;5039646;28;20512;-77
2023/07/29 02:25:09;;;;;;;7.00;4.40;;;;;;;16.33;100.00;100678.69;5035966;28;20508;-77
2023/07/29 02:27:35;;;;;;;5.22;4.32;;;;;;;16.31;100.00;100670.84;5045358;28;20024;-77
2023/07/29 02:30:00;;;;;;;6.50;4.47;;;;;;;16.26;100.00;100666.78;5044695;28;20126;-77
2023/07/29 02:32:26;;;;;;;6.68;4.15;;;;;;;16.26;100.00;100672.03;5045615;28;20052;-77
2023/07/29 02:34:51;;;;;;;6.78;4.13;;;;;;;16.17;100.00;100668.06;5045304;28;20401;-77
2023/07/29 02:37:17;;;;;;;5.18;4.10;;;;;;;16.10;100.00;100678.03;5042076;28;20030;-78
2023/07/29 02:39:42;;;;;;;4.72;3.38;;;;;;;16.06;100.00;100679.13;5037589;28;20021;-77
2023/07/29 02:42:07;;;;;;;5.63;3.80;;;;;;;16.01;100.00;100683.75;5047209;28;20036;-77
2023/07/29 02:44:33;;;;;;;6.75;4.45;;;;;;;15.97;100.00;100676.09;5043556;28;20056;-77
2023/07/29 02:46:58;;;;;;;6.60;4.10;;;;;;;15.90;100.00;100673.75;5032534;28;20041;-77
2023/07/29 02:49:23;;;;;;;6.65;4.68;;;;;;;15.89;100.00;100668.56;5034108;28;20088;-78
2023/07/29 02:51:49;;;;;;;5.80;4.10;;;;;;;15.86;100.00;100658.22;5035714;28;20091;-77
2023/07/29 02:54:14;;;;;;;5.07;4.15;;;;;;;15.82;100.00;100673.25;5036098;28;20067;-78
2023/07/29 02:56:39;;;;;;;7.03;4.70;;;;;;;15.82;100.00;100673.25;5041906;28;20090;-77
2023/07/29 02:59:05;;;;;;;6.53;4.45;;;;;;;15.77;100.00;100653.41;5042170;28;20090;-77
2023/07/29 03:01:30;;;;;;;6.80;4.22;;;;;;;15.76;100.00;100654.28;5041517;28;20029;-78
2023/07/29 03:03:56;;;;;;;7.43;4.85;;;;;;;15.79;100.00;100662.03;5043042;28;20021;-78
2023/07/29 03:06:21;;;;;;;7.72;4.85;;;;;;;15.74;100.00;100667.53;5036653;28;20388;-78
2023/07/29 03:08:46;;;;;;;7.45;4.70;;;;;;;15.72;100.00;100671.16;5041033;28;20026;-78
2023/07/29 03:11:14;;;;;;;7.97;5.07;;;;;;;15.73;100.00;100664.97;5042163;28;20108;-78
2023/07/29 03:13:40;;;;;;;6.45;5.18;;;;;;;15.71;100.00;100656.31;5038604;28;20405;-78
2023/07/29 03:16:09;;;;;;;7.95;5.28;;;;;;;15.67;100.00;100656.47;5041778;28;20025;-78
2023/07/29 03:18:34;;;;;;;6.95;5.07;;;;;;;15.65;100.00;100662.66;5045341;28;20392;-78
2023/07/29 03:21:00;;;;;;;7.20;5.30;;;;;;;15.62;100.00;100666.28;5038516;28;20021;-78
2023/07/29 03:23:25;;;;;;;6.82;5.10;;;;;;;15.62;100.00;100678.59;5040074;28;20029;-78
2023/07/29 03:25:53;;;;;;;7.32;5.50;;;;;;;15.62;100.00;100682.06;5041686;28;20036;-78
2023/07/29 03:28:18;;;;;;;7.55;5.60;;;;;;;15.63;100.00;100683.78;5044285;28;20470;-78
2023/07/29 03:30:43;;;;;;;7.20;5.57;;;;;;;15.62;100.00;100681.22;5039535;28;20025;-78
2023/07/29 03:33:08;;;;;;;11.35;6.30;;;;;;;15.61;100.00;100674.25;5035604;28;20033;-78
2023/07/29 03:35:34;;;;;;;8.40;5.70;;;;;;;15.58;100.00;100677.03;5041951;28;20478;-77
2023/07/29 03:37:59;;;;;;;8.20;5.90;;;;;;;15.57;100.00;100677.97;5042316;28;20029;-77
2023/07/29 03:40:25;;;;;;;6.35;5.18;;;;;;;15.56;100.00;100669.19;5036753;28;20141;-77
2023/07/29 03:42:51;;;;;;;9.43;5.55;;;;;;;15.51;100.00;100668.59;5042899;28;20112;-78
2023/07/29 03:45:16;;;;;;;8.38;5.90;;;;;;;15.42;100.00;100663.75;5042941;28;20056;-77
2023/07/29 03:47:41;;;;;;;8.27;5.80;;;;;;;15.46;100.00;100676.66;5037758;28;20552;-78
2023/07/29 03:50:08;;;;;;;6.10;5.18;;;;;;;15.40;100.00;100681.34;5048202;28;20488;-78
2023/07/29 03:52:33;;;;;;;10.25;5.78;;;;;;;15.39;100.00;100674.41;5040955;28;20075;-78
2023/07/29 03:55:02;;;;;;;7.43;5.65;;;;;;;15.34;100.00;100658.88;5038830;28;20472;-78
2023/07/29 03:57:28;;;;;;;9.45;6.32;;;;;;;15.34;100.00;100653.59;5040053;28;20036;-78
2023/07/29 03:59:54;;;;;;;9.93;5.88;;;;;;;15.34;100.00;100634.38;5027825;28;20032;-78
2023/07/29 04:02:19;;;;;;;8.38;5.82;;;;;;;15.29;100.00;100628.47;5039546;28;20049;-78
2023/07/29 04:04:47;;;;;;;7.25;5.82;;;;;;;15.34;100.00;100642.25;5031793;28;20059;-77
2023/07/29 04:07:12;;;;;;;7.57;5.53;;;;;;;15.29;100.00;100637.19;5040308;28;20458;-78
2023/07/29 04:09:38;;;;;;;8.15;5.65;;;;;;;15.34;100.00;100639.63;5035051;28;20065;-78
2023/07/29 04:12:04;;;;;;;11.23;5.90;;;;;;;15.33;100.00;100624.78;5045994;28;20049;-78
2023/07/29 04:14:29;;;;;;;10.05;6.05;;;;;;;15.32;100.00;100629.19;5038733;28;20043;-78
2023/07/29 04:16:54;;;;;;;10.05;5.72;;;;;;;15.32;100.00;100634.44;5043119;28;20029;-78
2023/07/29 04:19:20;;;;;;;13.00;5.40;;;;;;;15.30;100.00;100649.41;5034995;28;20049;-78
2023/07/29 04:21:46;;;;;;;8.15;5.93;;;;;;;15.30;100.00;100664.31;5037070;28;20027;-78
2023/07/29 04:24:11;;;;;;;9.98;5.60;;;;;;;15.27;100.00;100683.72;5034317;28;20029;-78
2023/07/29 04:26:38;;;;;;;8.02;5.60;;;;;;;15.27;100.00;100677.56;5040550;28;20025;-78
2023/07/29 04:29:03;;;;;;;6.40;5.18;;;;;;;15.28;100.00;100682.78;5047480;28;20029;-78
2023/07/29 04:31:29;;;;;;;6.88;4.97;;;;;;;15.37;100.00;100692.03;5032962;28;20021;-79
2023/07/29 04:33:54;;;;;;;9.65;5.38;;;;;;;15.43;100.00;100686.47;5035856;28;20037;-78
2023/07/29 04:36:19;;;;;;;8.18;5.13;;;;;;;15.49;100.00;100678.28;5042984;28;20037;-78
2023/07/29 04:38:45;;;;;;;8.10;5.03;;;;;;;15.55;100.00;100683.28;5034979;28;20079;-78
2023/07/29 04:41:10;;;;;;;6.32;4.70;;;;;;;15.60;100.00;100681.28;5036081;28;20025;-78
2023/07/29 04:43:36;;;;;;;6.38;4.57;;;;;;;15.66;100.00;100694.19;5044277;28;20029;-77
2023/07/29 04:46:01;;;;;;;6.13;4.75;;;;;;;15.68;100.00;100696.72;5037439;28;20365;-78
2023/07/29 04:48:27;;;;;;;5.97;4.50;;;;;;;15.75;100.00;100690.25;5034558;28;20484;-78
2023/07/29 04:50:52;;;;;;;7.15;4.40;;;;;;;15.79;100.00;100688.31;5042583;28;20082;-78
2023/07/29 04:53:17;;;;;;;5.53;4.20;;;;;;;15.78;100.00;100705.03;5034934;28;20120;-78
2023/07/29 04:55:43;;;;;;;7.20;4.25;;;;;;;15.80;100.00;100692.69;5045178;28;20094;-78
2023/07/29 04:58:09;;;;;;;4.20;3.47;;;;;;;15.82;100.00;100689.03;5039725;28;20044;-78
2023/07/29 05:00:34;;;;;;;4.40;3.58;;;;;;;15.86;100.00;100697.66;5037473;28;20531;-78
2023/07/29 05:03:00;;;;;;;7.20;3.78;;;;;;;15.84;100.00;100686.34;5039292;28;20030;-78
2023/07/29 05:05:26;;;;;;;5.30;3.55;;;;;;;15.91;100.00;100699.09;5034993;28;20441;-78
2023/07/29 05:07:51;;;;;;;4.00;3.20;;;;;;;15.95;100.00;100710.31;5042510;28;20068;-78
2023/07/29 05:10:16;;;;;;;6.00;3.30;;;;;;;16.00;100.00;100718.84;5040361;28;20025;-78
2023/07/29 05:12:42;;;;;;;4.47;3.42;;;;;;;16.04;100.00;100706.41;5043001;28;20017;-78
2023/07/29 05:15:08;;;;;;;4.05;3.28;;;;;;;16.07;100.00;100719.41;5038583;28;20154;-78
2023/07/29 05:17:33;;;;;;;4.68;3.63;;;;;;;16.12;100.00;100723.53;5041302;28;20481;-78
2023/07/29 05:19:59;;;;;;;6.13;3.30;;;;;;;16.13;100.00;100722.59;5041879;28;20025;-77
2023/07/29 05:22:24;;;;;;;5.25;3.10;;;;;;;16.15;100.00;100722.50;5040549;28;20037;-78
2023/07/29 05:24:50;;;;;;;5.43;3.65;;;;;;;16.11;100.00;100713.06;5043897;28;20031;-78
2023/07/29 05:27:15;;;;;;;5.03;3.30;;;;;;;16.05;100.00;100708.94;5042983;28;20041;-78
2023/07/29 05:29:41;;;;;;;6.90;3.05;;;;;;;16.01;100.00;100712.66;5042795;28;20045;-78
2023/07/29 05:32:06;;;;;;;6.13;3.00;;;;;;;15.97;100.00;100712.91;5039220;28;20040;-78
2023/07/29 05:34:31;;;;;;;5.35;3.25;;;;;;;15.94;100.00;100718.31;5042743;28;20136;-78
2023/07/29 05:36:57;;;;;;;7.68;3.20;;;;;;;15.96;100.00;100716.44;5043757;28;20029;-78
2023/07/29 05:39:24;;;;;;;3.95;2.90;;;;;;;15.99;100.00;100717.16;5045805;28;20111;-77
2023/07/29 05:41:49;;;;;;;4.90;3.25;;;;;;;16.05;100.00;100708.94;5040203;28;20055;-77
2023/07/29 05:44:14;;;;;;;5.50;3.15;;;;;;;16.12;100.00;100709.50;5043504;28;20024;-78
2023/07/29 05:46:40;;;;;;;3.70;2.92;;;;;;;16.15;100.00;100697.09;5037110;28;20451;-78
2023/07/29 05:49:05;;;;;;;6.85;3.97;;;;;;;16.26;100.00;100691.28;5040646;28;20068;-77
2023/07/29 05:51:30;;;;;;;5.20;3.90;;;;;;;16.53;100.00;100701.38;5044957;28;20065;-77
2023/07/29 05:53:55;;;;;;;8.40;3.00;;;;;;;16.69;100.00;100714.59;5043347;28;20064;-77
2023/07/29 05:56:21;;;;;;;4.15;3.58;;;;;;;16.80;100.00;100713.13;5041141;28;20057;-78
2023/07/29 05:58:46;;;;;;;6.10;3.05;;;;;;;16.89;100.00;100718.88;5045927;28;20072;-77
2023/07/29 06:01:12;;;;;;;5.18;3.53;;;;;;;16.89;100.00;100700.44;5039296;28;20028;-78
2023/07/29 06:03:37;;;;;;;4.07;2.97;;;;;;;17.04;100.00;100702.28;5036916;28;20096;-77
2023/07/29 06:06:02;;;;;;;4.18;2.63;;;;;;;17.15;100.00;100705.19;5045045;28;20038;-78
2023/07/29 06:08:29;;;;;;;3.60;2.83;;;;;;;17.33;100.00;100708.66;5045940;28;20040;-77
2023/07/29 06:10:54;;;;;;;5.13;3.40;;;;;;;17.53;100.00;100699.66;5042307;28;20029;-77
2023/07/29 06:13:19;;;;;;;3.42;2.78;;;;;;;17.69;100.00;100704.91;5043408;28;20082;-77
2023/07/29 06:15:45;;;;;;;7.03;3.15;;;;;;;17.84;100.00;100700.63;5039352;28;20458;-77
2023/07/29 06:18:10;;;;;;;3.63;2.88;;;;;;;17.99;100.00;100707.69;5043620;28;20075;-77
2023/07/29 06:20:35;;;;;;;3.45;2.50;;;;;;;18.05;100.00;100698.53;5035380;28;20033;-77
2023/07/29 06:23:01;;;;;;;5.10;3.05;;;;;;;17.92;100.00;100696.63;5035528;28;20033;-76
2023/07/29 06:25:27;;;;;;;4.22;2.90;;;;;;;17.77;100.00;100693.06;5043336;28;20100;-77
2023/07/29 06:27:52;;;;;;;4.03;3.03;;;;;;;17.62;100.00;100693.00;5045759;28;20525;-77
2023/07/29 06:30:18;;;;;;;5.18;3.00;;;;;;;17.48;100.00;100691.97;5043663;28;20621;-77
2023/07/29 06:32:43;;;;;;;3.85;3.03;;;;;;;17.46;100.00;100696.50;5048946;28;20074;-76
2023/07/29 06:35:08;;;;;;;4.70;3.13;;;;;;;17.49;100.00;100706.00;5041933;28;20046;-76
2023/07/29 06:37:34;;;;;;;4.13;3.17;;;;;;;17.51;100.00;100706.78;5037195;28;20477;-77
2023/07/29 06:39:59;;;;;;;6.75;3.17;;;;;;;17.55;100.00;100688.06;5031810;28;20387;-77
2023/07/29 06:42:24;;;;;;;6.05;3.10;;;;;;;17.62;100.00;100695.66;5029888;28;20091;-77
2023/07/29 06:44:50;;;;;;;6.32;3.17;;;;;;;17.68;100.00;100700.59;5018886;28;20029;-77
2023/07/29 06:47:15;;;;;;;3.03;2.55;;;;;;;17.65;100.00;100703.38;5020941;28;20565;-77
2023/07/29 06:49:40;;;;;;;4.50;2.63;;;;;;;17.68;100.00;100703.22;5016305;28;20033;-77
2023/07/29 06:52:06;;;;;;;2.90;2.50;;;;;;;17.72;100.00;100710.03;5021910;28;20057;-75
2023/07/29 06:54:31;;;;;;;4.72;2.42;;;;;;;17.98;100.00;100721.78;5029006;28;20461;-76
2023/07/29 06:56:57;;;;;;;4.93;2.95;;;;;;;18.14;100.00;100713.84;5021478;28;21641;-77
2023/07/29 06:59:24;;;;;;;6.22;3.38;;;;;;;18.21;100.00;100725.75;5022990;28;20026;-76
2023/07/29 07:01:49;;;;;;;3.30;2.60;;;;;;;18.47;100.00;100727.78;5027065;28;20028;-76
2023/07/29 07:04:14;;;;;;;5.18;2.83;;;;;;;18.76;100.00;100721.72;5024289;28;20026;-76
2023/07/29 07:06:40;;;;;;;4.68;2.90;;;;;;;18.95;100.00;100720.53;5019579;28;20029;-75
2023/07/29 07:09:05;;;;;;;4.22;2.60;;;;;;;19.03;100.00;100730.66;5025010;28;20439;-74
2023/07/29 07:11:30;;;;;;;6.45;3.40;;;;;;;18.97;100.00;100727.53;5037080;28;20353;-74
2023/07/29 07:13:56;;;;;;;4.53;2.70;;;;;;;19.01;100.00;100734.34;5039336;28;20418;-74
2023/07/29 07:16:21;;;;;;;2.53;2.28;;;;;;;19.01;100.00;100729.91;5022545;28;20515;-74
2023/07/29 07:18:49;;;;;;;3.28;2.53;;;;;;;18.95;100.00;100715.25;5019426;28;20460;-75
2023/07/29 07:21:15;;;;;;;4.75;2.40;;;;;;;19.23;100.00;100728.56;5019423;28;20029;-76
2023/07/29 07:23:40;;;;;;;3.75;2.95;;;;;;;19.32;100.00;100733.28;5032928;28;20021;-75
2023/07/29 07:26:05;;;;;;;5.10;2.60;;;;;;;19.47;100.00;100732.34;5038274;28;20452;-74
2023/07/29 07:28:31;;;;;;;4.20;2.58;;;;;;;19.78;100.00;100736.59;5037513;28;20025;-75
2023/07/29 07:30:56;;;;;;;8.00;2.97;;;;;;;20.04;100.00;100734.91;5039182;28;20464;-74
2023/07/29 07:33:22;;;;;;;3.72;2.10;;;;;;;20.03;100.00;100735.03;5036784;28;20031;-75
2023/07/29 07:35:47;;;;;;;3.10;2.17;;;;;;;19.95;100.00;100739.97;5027122;28;20029;-75
2023/07/29 07:38:13;;;;;;;3.00;2.60;;;;;;;19.95;100.00;100742.63;5034666;28;20108;-75
2023/07/29 07:40:38;;;;;;;5.03;2.65;;;;;;;19.87;100.00;100743.09;5039361;28;20021;-75
2023/07/29 07:43:04;;;;;;;2.85;2.25;;;;;;;19.60;100.00;100735.09;5044171;28;20107;-75
2023/07/29 07:45:29;;;;;;;5.47;2.65;;;;;;;19.42;100.00;100740.59;5042037;28;20068;-75
2023/07/29 07:47:56;;;;;;;3.45;2.20;;;;;;;19.41;100.00;100746.78;5041915;28;20090;-75
2023/07/29 07:50:21;;;;;;;2.95;2.22;;;;;;;19.42;100.00;100748.50;5034496;28;20029;-75
2023/07/29 07:52:47;;;;;;;2.95;2.53;;;;;;;19.68;100.00;100756.63;5032496;28;20021;-75
2023/07/29 07:55:12;;;;;;;3.55;2.15;;;;;;;19.93;100.00;100752.44;5032882;28;20021;-75
2023/07/29 07:57:37;;;;;;;4.15;2.35;;;;;;;20.27;100.00;100753.75;5037713;28;20388;-75
2023/07/29 08:00:04;;;;;;;2.28;2.00;;;;;;;20.57;100.00;100735.88;5031496;28;20033;-74
2023/07/29 08:02:29;;;;;;;2.65;1.88;;;;;;;20.69;100.00;100750.06;5036454;28;20072;-73
2023/07/29 08:04:55;;;;;;;2.97;2.00;;;;;;;20.71;100.00;100737.59;5039317;28;20040;-73
2023/07/29 08:07:20;;;;;;;3.65;1.70;;;;;;;20.71;100.00;100745.53;5040131;28;20131;-74
2023/07/29 08:09:45;;;;;;;2.72;1.90;;;;;;;20.74;100.00;100737.38;5031741;28;20034;-72
2023/07/29 08:12:11;;;;;;;3.53;2.05;;;;;;;20.84;100.00;100742.06;5041219;28;20523;-74
2023/07/29 08:14:36;;;;;;;2.08;1.88;;;;;;;20.97;100.00;100743.75;5029988;28;20033;-76
2023/07/29 08:17:01;;;;;;;2.67;1.55;;;;;;;20.94;100.00;100751.94;5026810;28;20022;-76
2023/07/29 08:19:27;;;;;;;2.40;1.63;;;;;;;20.76;100.00;100746.09;5030686;28;20029;-76
2023/07/29 08:21:52;;;;;;;5.10;1.83;;;;;;;20.58;100.00;100763.19;5039374;28;20044;-76
2023/07/29 08:24:18;;;;;;;1.75;1.63;;;;;;;20.47;100.00;100757.72;5041845;28;20053;-76
2023/07/29 08:26:43;;;;;;;2.63;1.70;;;;;;;20.46;100.00;100748.09;5041760;28;20017;-76
2023/07/29 08:29:08;;;;;;;2.38;1.75;;;;;;;20.30;100.00;100762.31;5043587;28;20032;-76
2023/07/29 08:31:34;;;;;;;2.28;1.90;;;;;;;20.07;100.00;100755.03;5044872;28;20018;-76
2023/07/29 08:34:00;;;;;;;3.25;1.73;;;;;;;19.94;100.00;100754.13;5040724;28;20369;-76
2023/07/29 08:36:26;;;;;;;2.10;1.90;;;;;;;19.98;100.00;100753.84;5043071;28;20044;-76
2023/07/29 08:38:51;;;;;;;1.75;1.55;;;;;;;19.96;100.00;100761.03;5040266;28;20405;-76
2023/07/29 08:41:24;;;;;;;2.70;1.52;;;;;;;19.85;100.00;100755.59;5046572;28;20037;-76
2023/07/29 08:43:59;;;;;;;3.75;1.85;;;;;;;19.70;100.00;100757.38;5042658;28;20025;-76
2023/07/29 08:46:25;;;;;;;5.18;1.90;;;;;;;19.53;100.00;100750.47;5041189;28;20040;-76
2023/07/29 08:48:51;;;;;;;3.10;1.73;;;;;;;19.55;100.00;100743.28;5040185;28;20021;-76
2023/07/29 08:51:17;;;;;;;2.15;1.70;;;;;;;19.72;100.00;100755.50;5047162;28;20033;-76
2023/07/29 08:53:42;;;;;;;4.82;1.83;;;;;;;19.88;100.00;100743.00;5035579;28;20039;-76
2023/07/29 08:56:08;;;;;;;3.47;1.80;;;;;;;20.29;100.00;100743.91;5034589;28;20495;-76
2023/07/29 08:58:35;;;;;;;1.92;1.50;;;;;;;20.80;100.00;100744.91;5043679;28;20040;-76
2023/07/29 09:01:00;;;;;;;2.15;1.73;;;;;;;21.35;100.00;100734.97;5043246;28;20499;-76
2023/07/29 09:03:26;;;;;;;3.35;1.70;;;;;;;21.55;100.00;100732.72;5043575;28;20032;-76
2023/07/29 09:05:52;;;;;;;1.92;1.67;;;;;;;21.76;95.76;100741.81;5041702;28;20700;-76
2023/07/29 09:08:18;;;;;;;3.53;1.85;;;;;;;22.08;95.94;100746.59;5043789;28;20101;-76
2023/07/29 09:10:43;;;;;;;4.07;1.50;;;;;;;22.23;95.09;100737.50;5040614;28;20527;-76
2023/07/29 09:13:09;;;;;;;4.30;1.52;;;;;;;22.39;95.79;100745.19;5039747;28;20083;-76
2023/07/29 09:15:36;;;;;;;1.95;1.33;;;;;;;22.34;89.86;100737.59;5043283;28;20478;-76
2023/07/29 09:18:15;;;;;;;5.07;1.48;;;;;;;22.30;94.51;100738.78;5045446;28;20040;-76
2023/07/29 09:20:40;;;;;;;2.40;1.60;;;;;;;22.24;92.84;100738.38;5042465;28;20468;-76
2023/07/29 09:23:09;;;;;;;1.83;1.60;;;;;;;22.03;93.46;100728.34;5041483;28;20086;-76
2023/07/29 09:25:34;;;;;;;2.33;1.40;;;;;;;21.74;90.40;100718.06;5043260;28;20033;-76
2023/07/29 09:28:00;;;;;;;2.63;1.33;;;;;;;21.56;96.53;100727.31;5041986;28;20036;-76
2023/07/29 09:30:27;;;;;;;3.65;1.58;;;;;;;21.64;96.54;100727.59;5043187;28;20060;-76
2023/07/29 09:32:56;;;;;;;2.58;1.52;;;;;;;21.85;93.88;100727.03;5035510;28;20032;-75
2023/07/29 09:35:22;;;;;;;3.30;1.80;;;;;;;22.10;89.41;100723.41;5041311;28;20443;-76
2023/07/29 09:37:47;;;;;;;2.83;1.60;;;;;;;22.34;87.01;100720.81;5041349;28;20025;-76
2023/07/29 09:40:17;;;;;;;2.75;1.40;;;;;;;22.43;90.79;100717.44;5040632;28;20029;-76
2023/07/29 09:42:55;;;;;;;1.50;1.30;;;;;;;22.39;94.82;100729.25;5042489;28;20033;-76
2023/07/29 09:45:25;;;;;;;3.40;1.60;;;;;;;22.01;94.38;100724.97;5041075;28;20038;-76
2023/07/29 09:47:52;;;;;;;1.60;1.50;;;;;;;21.60;96.77;100735.91;5033605;28;20095;-76
2023/07/29 09:50:18;;;;;;;3.60;1.58;;;;;;;21.27;100.00;100735.50;5038515;28;20024;-77
2023/07/29 09:52:44;;;;;;;3.45;1.70;;;;;;;20.95;100.00;100742.16;5045353;28;20040;-76
2023/07/29 09:55:13;;;;;;;2.38;1.58;;;;;;;20.75;100.00;100748.81;5048012;28;20033;-76
2023/07/29 09:57:39;;;;;;;2.05;1.50;;;;;;;20.57;98.69;100758.88;5044859;28;20380;-76
2023/07/29 10:00:10;;;;;;;1.98;1.77;;;;;;;20.63;100.00;100752.28;5045451;28;20027;-76
2023/07/29 10:02:40;;;;;;;1.92;1.60;;;;;;;20.89;100.00;100740.78;5042611;28;20492;-76
2023/07/29 10:05:07;;;;;;;4.55;2.05;;;;;;;21.16;100.00;100747.81;5046782;28;20051;-76
2023/07/29 10:07:35;;;;;;;3.28;1.60;;;;;;;21.30;100.00;100736.25;5039260;28;20025;-76
2023/07/29 10:10:02;;;;;;;1.90;1.65;;;;;;;21.53;100.00;100729.34;5044334;28;20373;-76
2023/07/29 10:12:28;;;;;;;2.75;1.83;;;;;;;21.66;94.91;100733.66;5046344;28;20026;-76
2023/07/29 10:14:55;;;;;;;1.75;1.50;;;;;;;22.03;98.29;100728.34;5044716;28;20037;-76
2023/07/29 10:17:21;;;;;;;3.30;1.65;;;;;;;22.48;93.78;100733.03;5047066;28;20034;-76
2023/07/29 10:19:47;;;;;;;2.72;1.80;;;;;;;22.72;85.50;100731.16;5043118;28;20025;-76
2023/07/29 10:22:15;;;;;;;2.53;1.92;;;;;;;22.94;87.44;100735.72;5046292;28;20416;-76
2023/07/29 10:24:43;;;;;;;3.25;1.55;;;;;;;23.14;87.24;100731.53;5045166;28;20032;-76
2023/07/29 10:27:11;;;;;;;3.70;1.80;;;;;;;22.97;86.68;100724.88;5037659;28;20079;-77
2023/07/29 10:29:38;;;;;;;3.78;1.77;;;;;;;23.00;83.99;100719.31;5048379;28;20116;-77
2023/07/29 10:32:05;;;;;;;1.90;1.48;;;;;;;23.17;85.70;100730.44;5042322;28;20056;-77
2023/07/29 10:34:34;;;;;;;3.40;1.95;;;;;;;23.34;88.21;100716.66;5049762;28;20468;-76
2023/07/29 10:36:59;;;;;;;2.70;1.48;;;;;;;23.67;87.47;100714.94;5037347;28;20026;-76
2023/07/29 10:39:26;;;;;;;2.15;1.77;;;;;;;23.79;81.93;100706.00;5050608;28;20468;-76
2023/07/29 10:41:56;;;;;;;2.30;1.77;;;;;;;23.96;83.37;100710.78;5045138;28;20025;-77
2023/07/29 10:44:39;;;;;;;2.83;1.50;;;;;;;24.25;82.21;100708.38;5045941;28;20029;-76
2023/07/29 10:47:11;;;;;;;;;;;;;;;24.32;88.09;100710.53;5042967;28;20032;-76
2023/07/29 10:49:37;;;;;;;2.03;1.70;;;;;;;23.95;78.71;100700.28;5026589;28;20399;-73
2023/07/29 10:52:02;;;;;;;2.53;1.70;;;;;;;23.76;81.85;100700.94;5029598;28;20104;-75
2023/07/29 10:54:28;;;;;;;4.03;1.65;;;;;;;23.73;82.50;100701.16;5031788;28;20042;-73
2023/07/29 10:56:57;;;;;;;3.08;1.80;;;;;;;23.70;82.67;100701.41;5032120;28;20391;-73
2023/07/29 10:59:33;;;;;;;2.33;1.90;;;;;;;23.57;82.70;100701.53;5041705;28;20025;-73
2023/07/29 11:01:59;;;;;;;2.45;1.65;;;;;;;23.34;85.47;100703.38;5037462;28;20025;-72
2023/07/29 11:04:26;;;;;;;2.75;1.75;;;;;;;23.13;81.22;100703.25;5032928;28;20026;-73
2023/07/29 11:07:04;;;;;;;2.00;1.80;;;;;;;22.90;87.01;100705.84;5035630;28;20033;-72
2023/07/29 11:09:51;;;;;;;2.33;1.80;;;;;;;22.50;87.42;100713.38;5039619;28;20029;-72
2023/07/29 11:12:38;;;;;;;2.20;1.90;;;;;;;22.23;90.79;100712.78;5033464;28;20099;-72
2023/07/29 11:15:09;;;;;;;2.95;1.70;;;;;;;22.03;92.09;100711.56;5042363;28;20033;-73